Time;durP1;ratioP1;P1;durP2;ratioP2;P2;SDS_P1;SDS_P2;PMS_P1;PMS_P2;Temp;Humidity;BMP_temperature;BMP_pressure;BME280_temperature;BME280_humidity;BME280_pressure;Samples;Min_cycle;Max_cycle;Signal;HPM_P1;HPM_P2
2021/07/15 00:00:56;;;;;;;7.45;5.15;;;16.00;91.50;;;;;;5055240;28;20032;-76
2021/07/15 00:03:26;;;;;;;9.55;5.82;;;15.90;91.70;;;;;;5055451;28;20413;-76
2021/07/15 00:05:55;;;;;;;9.57;5.20;;;15.80;92.10;;;;;;5055277;28;20025;-74
2021/07/15 00:08:23;;;;;;;8.45;5.70;;;15.80;92.20;;;;;;5055511;28;20028;-75
2021/07/15 00:11:10;;;;;;;9.00;5.68;;;15.80;92.30;;;;;;5055018;28;20389;-76
2021/07/15 00:13:36;;;;;;;7.97;5.18;;;15.70;92.60;;;;;;5055107;28;20078;-76
2021/07/15 00:16:05;;;;;;;9.07;6.18;;;15.70;92.60;;;;;;5055568;28;20103;-75
2021/07/15 00:18:35;;;;;;;9.07;5.03;;;15.80;92.70;;;;;;5054895;28;20021;-75
2021/07/15 00:21:05;;;;;;;8.23;5.70;;;15.80;92.50;;;;;;5055057;28;20366;-76
2021/07/15 00:23:30;;;;;;;7.53;5.38;;;15.70;92.10;;;;;;5055012;28;20499;-77
2021/07/15 00:25:57;;;;;;;8.43;4.88;;;15.80;91.90;;;;;;5054946;28;20128;-76
2021/07/15 00:28:23;;;;;;;7.72;5.18;;;15.70;92.00;;;;;;5055089;28;20508;-76
2021/07/15 00:30:49;;;;;;;8.85;5.70;;;15.70;92.00;;;;;;5054846;28;20107;-78
2021/07/15 00:33:15;;;;;;;9.25;5.40;;;15.80;91.90;;;;;;5051595;28;20065;-77
2021/07/15 00:35:40;;;;;;;7.47;5.18;;;15.80;91.90;;;;;;5034918;28;20044;-75
2021/07/15 00:38:07;;;;;;;7.57;5.50;;;15.80;92.20;;;;;;5035203;28;20028;-76
2021/07/15 00:40:34;;;;;;;8.65;5.72;;;15.80;92.40;;;;;;5034823;28;20017;-77
2021/07/15 00:43:00;;;;;;;9.45;5.72;;;15.80;92.50;;;;;;5035301;28;20036;-76
2021/07/15 00:45:25;;;;;;;8.85;5.80;;;15.80;92.70;;;;;;5035341;28;20028;-75
2021/07/15 00:47:51;;;;;;;9.35;5.53;;;15.70;92.70;;;;;;5035258;28;20041;-76
2021/07/15 00:50:19;;;;;;;7.85;5.55;;;15.60;93.00;;;;;;5034756;28;20024;-76
2021/07/15 00:52:45;;;;;;;9.43;5.47;;;15.70;93.00;;;;;;5033470;28;20053;-75
2021/07/15 00:55:17;;;;;;;8.50;5.28;;;15.80;92.80;;;;;;5034745;28;20026;-76
2021/07/15 00:57:44;;;;;;;10.25;5.15;;;15.80;92.60;;;;;;5016857;28;20378;-76
2021/07/15 01:00:10;;;;;;;7.00;4.28;;;15.90;92.50;;;;;;5033978;28;20021;-76
2021/07/15 01:02:37;;;;;;;6.53;4.18;;;15.80;91.90;;;;;;5034443;28;20052;-76
2021/07/15 01:05:14;;;;;;;10.73;5.03;;;15.80;91.80;;;;;;5034459;28;20052;-75
2021/07/15 01:07:40;;;;;;;9.77;5.93;;;15.80;92.20;;;;;;5034373;28;20412;-76
2021/07/15 01:10:07;;;;;;;9.35;5.90;;;15.70;92.40;;;;;;5033797;28;20021;-75
2021/07/15 01:13:12;;;;;;;7.80;5.28;;;15.60;92.50;;;;;;5033938;28;20025;-76
2021/07/15 01:15:58;;;;;;;8.85;5.32;;;15.60;92.60;;;;;;5034338;28;20063;-77
2021/07/15 01:18:58;;;;;;;7.53;4.57;;;15.60;92.60;;;;;;5033814;28;20522;-78
2021/07/15 01:21:27;;;;;;;;;;;15.70;91.80;;;;;;5034442;28;20025;-76
2021/07/15 01:24:14;;;;;;;9.32;5.25;;;;;;;;;;5034207;28;19905;-77
2021/07/15 01:26:45;;;;;;;9.40;5.45;;;;;;;;;;5010407;28;20505;-75
2021/07/15 01:29:38;;;;;;;9.40;5.97;;;;;;;;;;5052308;28;20091;-75
2021/07/15 01:32:06;;;;;;;9.07;6.00;;;;;;;;;;5050043;28;20037;-76
2021/07/15 01:34:34;;;;;;;7.97;5.50;;;;;;;;;;5067196;28;20108;-77
2021/07/15 01:37:01;;;;;;;8.75;5.30;;;;;;;;;;5073855;28;20027;-77
2021/07/15 01:39:33;;;;;;;9.02;5.55;;;;;;;;;;5073548;28;20108;-76
2021/07/15 01:42:02;;;;;;;7.90;5.20;;;;;;;;;;5073703;28;20133;-76
2021/07/15 01:44:30;;;;;;;8.83;6.23;;;;;;;;;;5073884;28;20028;-76
2021/07/15 01:46:56;;;;;;;8.85;5.75;;;;;;;;;;5073807;28;20346;-76
2021/07/15 01:49:23;;;;;;;8.73;5.72;;;;;;;;;;5073567;28;20016;-75
2021/07/15 01:51:50;;;;;;;9.65;5.68;;;;;;;;;;5073273;28;20040;-77
2021/07/15 01:54:16;;;;;;;8.38;6.10;;;;;;;;;;5073261;28;20021;-76
2021/07/15 01:56:42;;;;;;;8.18;5.55;;;;;;;;;;5073654;28;20017;-77
2021/07/15 01:59:10;;;;;;;7.32;4.57;;;;;;;;;;5073407;28;20184;-76
2021/07/15 02:01:37;;;;;;;8.05;5.32;;;;;;;;;;5073191;28;20021;-78
2021/07/15 02:04:03;;;;;;;7.88;5.50;;;;;;;;;;5072880;28;20031;-76
2021/07/15 02:06:33;;;;;;;8.65;6.05;;;;;;;;;;5071832;28;20408;-76
2021/07/15 02:09:00;;;;;;;11.23;7.03;;;;;;;;;;5073226;28;20029;-76
2021/07/15 02:11:32;;;;;;;9.38;5.95;;;;;;;;;;5072916;28;20024;-76
2021/07/15 02:13:59;;;;;;;9.02;6.03;;;;;;;;;;5072976;28;20032;-76
2021/07/15 02:16:26;;;;;;;8.02;5.57;;;;;;;;;;5073045;28;20020;-76
2021/07/15 02:18:52;;;;;;;10.25;6.80;;;;;;;;;;5073104;28;20046;-76
2021/07/15 02:21:18;;;;;;;9.43;5.85;;;15.40;92.20;;;;;;5073245;28;20017;-74
2021/07/15 02:23:44;;;;;;;9.05;6.30;;;15.90;93.00;;;;;;5072020;28;20032;-77
2021/07/15 02:26:12;;;;;;;9.63;6.57;;;16.00;92.90;;;;;;5058706;28;20045;-75
2021/07/15 02:28:38;;;;;;;10.50;7.22;;;16.00;92.90;;;;;;5053185;28;20052;-75
2021/07/15 02:31:14;;;;;;;12.88;7.18;;;16.00;93.20;;;;;;5052759;28;20067;-75
2021/07/15 02:33:49;;;;;;;9.95;6.63;;;15.90;93.70;;;;;;5046548;28;20029;-77
2021/07/15 02:36:17;;;;;;;10.30;6.70;;;16.00;93.70;;;;;;5015488;28;20045;-76
2021/07/15 02:38:46;;;;;;;12.98;7.57;;;15.90;93.80;;;;;;5033227;28;20025;-76
2021/07/15 02:41:12;;;;;;;12.13;7.80;;;16.00;93.80;;;;;;5032225;28;20078;-76
2021/07/15 02:43:38;;;;;;;10.55;7.47;;;;;;;;;;5032854;28;20393;-77
2021/07/15 02:46:04;;;;;;;11.73;7.65;;;;;;;;;;5032819;28;20033;-77
2021/07/15 02:48:30;;;;;;;11.15;7.25;;;;;;;;;;5032558;28;20029;-75
2021/07/15 02:50:56;;;;;;;12.88;7.75;;;;;;;;;;5032223;28;20106;-76
2021/07/15 02:53:22;;;;;;;11.18;7.88;;;;;;;;;;5032407;28;20056;-76
2021/07/15 02:56:01;;;;;;;11.95;8.27;;;;;;;;;;5032562;28;20033;-76
2021/07/15 02:58:29;;;;;;;12.45;8.00;;;;;;;;;;5032490;28;20024;-76
2021/07/15 03:00:58;;;;;;;12.73;7.93;;;;;;;;;;5031715;28;20386;-76
2021/07/15 03:03:33;;;;;;;12.30;7.88;;;;;;;;;;5032225;28;20076;-76
2021/07/15 03:06:09;;;;;;;12.10;7.38;;;;;;;;;;5032575;28;20025;-75
2021/07/15 03:08:38;;;;;;;12.57;7.78;;;;;;;;;;5032149;28;20018;-76
2021/07/15 03:11:06;;;;;;;11.13;7.18;;;;;;;;;;5031881;28;20457;-77
2021/07/15 03:13:32;;;;;;;11.23;8.07;;;;;;;;;;5032184;28;20385;-76
2021/07/15 03:15:58;;;;;;;9.63;6.00;;;;;;;;;;5034278;28;20029;-77
2021/07/15 03:18:26;;;;;;;11.32;7.28;;;;;;;;;;5036152;28;20045;-75
2021/07/15 03:20:52;;;;;;;12.63;7.65;;;;;;;;;;5036202;28;20100;-76
2021/07/15 03:23:24;;;;;;;11.68;7.07;;;16.00;94.00;;;;;;5036337;28;20453;-76
2021/07/15 03:25:52;;;;;;;11.38;7.32;;;16.30;93.90;;;;;;5036193;28;20062;-77
2021/07/15 03:28:21;;;;;;;11.90;8.27;;;16.30;93.90;;;;;;5036222;28;20049;-76
2021/07/15 03:30:50;;;;;;;11.02;6.82;;;16.30;94.00;;;;;;5035755;28;20108;-76
2021/07/15 03:33:19;;;;;;;12.63;7.28;;;16.20;94.10;;;;;;5038770;28;20388;-75
2021/07/15 03:35:46;;;;;;;11.30;7.80;;;16.20;94.10;;;;;;5055757;28;20427;-76
2021/07/15 03:38:13;;;;;;;11.77;7.70;;;16.20;94.10;;;;;;5055728;28;20108;-76
2021/07/15 03:40:40;;;;;;;14.07;7.82;;;16.30;94.10;;;;;;5055472;28;20056;-76
2021/07/15 03:43:08;;;;;;;12.43;7.28;;;16.30;94.20;;;;;;5055600;28;20025;-75
2021/07/15 03:45:35;;;;;;;12.82;8.15;;;16.40;94.30;;;;;;5055505;28;20028;-75
2021/07/15 03:48:01;;;;;;;14.70;7.75;;;16.30;94.30;;;;;;5055486;28;20051;-75
2021/07/15 03:50:29;;;;;;;10.65;7.10;;;16.30;94.30;;;;;;5055330;28;20025;-73
2021/07/15 03:53:02;;;;;;;16.15;9.25;;;16.30;94.50;;;;;;5055793;28;20028;-76
2021/07/15 03:55:31;;;;;;;14.48;8.10;;;16.30;94.70;;;;;;5055578;28;20033;-75
2021/07/15 03:58:01;;;;;;;15.75;9.32;;;16.40;94.70;;;;;;5055616;28;20020;-76
2021/07/15 04:00:27;;;;;;;;;;;16.40;94.80;;;;;;5055686;28;20021;-76
2021/07/15 04:02:58;;;;;;;15.55;9.10;;;16.40;94.80;;;;;;5055840;28;20269;-76
2021/07/15 04:05:27;;;;;;;14.13;9.27;;;16.30;95.00;;;;;;5055439;28;20098;-77
2021/07/15 04:07:54;;;;;;;17.08;9.75;;;16.30;95.20;;;;;;5055322;28;20029;-76
2021/07/15 04:10:20;;;;;;;16.92;9.70;;;16.20;95.20;;;;;;5055200;28;20486;-74
2021/07/15 04:12:47;;;;;;;16.40;10.32;;;16.20;95.40;;;;;;5055313;28;20396;-78
2021/07/15 04:15:17;;;;;;;14.35;8.95;;;16.20;95.40;;;;;;5037566;28;20025;-76
2021/07/15 04:17:56;;;;;;;17.08;10.20;;;16.10;95.50;;;;;;5055135;28;20017;-76
2021/07/15 04:20:25;;;;;;;16.00;9.73;;;16.20;95.50;;;;;;5055053;28;20045;-77
2021/07/15 04:22:54;;;;;;;14.80;9.93;;;16.10;95.60;;;;;;5055161;28;20021;-76
2021/07/15 04:25:22;;;;;;;13.40;9.32;;;16.00;95.70;;;;;;5055146;28;20052;-75
2021/07/15 04:27:49;;;;;;;13.27;9.10;;;15.90;95.70;;;;;;5054580;28;20057;-74
2021/07/15 04:30:16;;;;;;;13.23;9.48;;;15.90;95.60;;;;;;5054572;28;20027;-75
2021/07/15 04:32:55;;;;;;;14.07;8.50;;;16.00;95.50;;;;;;5054935;28;20385;-75
2021/07/15 04:35:22;;;;;;;15.43;9.90;;;16.00;95.50;;;;;;5035171;28;20029;-76
2021/07/15 04:37:50;;;;;;;13.48;8.98;;;16.10;95.40;;;;;;5034778;28;20049;-76
2021/07/15 04:40:19;;;;;;;15.68;9.05;;;16.10;95.30;;;;;;5034623;28;20026;-75
2021/07/15 04:42:47;;;;;;;15.20;8.80;;;16.00;95.30;;;;;;5034526;28;20021;-77
2021/07/15 04:45:17;;;;;;;13.60;8.85;;;16.10;95.30;;;;;;5035347;28;20269;-76
2021/07/15 04:47:46;;;;;;;13.57;8.63;;;16.10;95.40;;;;;;5016730;28;20030;-78
2021/07/15 04:50:15;;;;;;;16.63;9.18;;;16.10;95.20;;;;;;5034455;28;20047;-77
2021/07/15 04:52:42;;;;;;;15.57;9.45;;;16.20;95.20;;;;;;5034595;28;20034;-76
2021/07/15 04:55:09;;;;;;;15.02;9.43;;;16.20;95.20;;;;;;5034619;28;20080;-75
2021/07/15 04:57:36;;;;;;;12.70;8.52;;;16.20;95.40;;;;;;5034344;28;20079;-78
2021/07/15 05:00:10;;;;;;;14.10;9.73;;;16.20;95.40;;;;;;5016299;28;20022;-75
2021/07/15 05:02:37;;;;;;;12.75;9.20;;;16.20;95.30;;;;;;5034464;28;20025;-76
2021/07/15 05:05:06;;;;;;;15.45;9.48;;;16.20;95.50;;;;;;5034505;28;20406;-76
2021/07/15 05:07:34;;;;;;;11.85;8.38;;;16.30;95.60;;;;;;5034137;28;20034;-77
2021/07/15 05:09:59;;;;;;;15.65;9.32;;;16.30;95.60;;;;;;5034137;28;20021;-75
2021/07/15 05:12:25;;;;;;;15.00;10.23;;;16.30;95.50;;;;;;5034335;28;20504;-75
2021/07/15 05:14:52;;;;;;;16.15;9.50;;;16.30;95.50;;;;;;5034288;28;20032;-75
2021/07/15 05:17:18;;;;;;;16.27;10.43;;;16.30;95.60;;;;;;5033990;28;20044;-76
2021/07/15 05:19:45;;;;;;;14.90;9.30;;;16.40;95.40;;;;;;5033856;28;20067;-77
2021/07/15 05:22:10;;;;;;;14.30;9.27;;;16.50;95.40;;;;;;5034151;28;20072;-77
2021/07/15 05:24:36;;;;;;;14.68;9.55;;;16.50;95.40;;;;;;5034037;28;20025;-76
2021/07/15 05:27:02;;;;;;;13.55;9.27;;;16.60;95.30;;;;;;5033895;28;20421;-76
2021/07/15 05:29:28;;;;;;;16.42;9.05;;;16.60;95.00;;;;;;5033688;28;20029;-76
2021/07/15 05:31:54;;;;;;;14.10;9.55;;;16.60;95.20;;;;;;5033743;28;20068;-76
2021/07/15 05:34:21;;;;;;;13.00;8.70;;;16.50;95.30;;;;;;5045732;28;20087;-76
2021/07/15 05:36:47;;;;;;;12.88;8.93;;;16.60;95.20;;;;;;5053683;28;20059;-76
2021/07/15 05:39:13;;;;;;;13.63;8.52;;;16.60;95.10;;;;;;5052711;28;20025;-76
2021/07/15 05:41:39;;;;;;;13.85;8.70;;;16.60;95.10;;;;;;5053061;28;20067;-76
2021/07/15 05:44:05;;;;;;;11.18;7.47;;;16.60;95.10;;;;;;5053700;28;20390;-77
2021/07/15 05:46:30;;;;;;;12.57;8.13;;;16.70;95.00;;;;;;5053766;28;20052;-76
2021/07/15 05:48:56;;;;;;;12.15;8.40;;;16.80;94.80;;;;;;5053487;28;20021;-76
2021/07/15 05:51:21;;;;;;;10.93;8.02;;;16.80;94.80;;;;;;5053222;28;20079;-76
2021/07/15 05:53:47;;;;;;;11.55;8.32;;;16.90;94.80;;;;;;5053106;28;20025;-75
2021/07/15 05:56:13;;;;;;;11.38;8.20;;;17.00;94.70;;;;;;5053369;28;20029;-77
2021/07/15 05:58:38;;;;;;;9.82;7.57;;;17.00;94.50;;;;;;5053298;28;20048;-76
2021/07/15 06:01:04;;;;;;;14.95;8.70;;;17.10;94.50;;;;;;5053036;28;20021;-77
2021/07/15 06:03:30;;;;;;;12.25;8.23;;;17.00;94.50;;;;;;5053276;28;20029;-76
2021/07/15 06:05:55;;;;;;;13.05;8.57;;;16.90;94.60;;;;;;5053023;28;20473;-76
2021/07/15 06:08:21;;;;;;;12.20;8.60;;;17.00;94.50;;;;;;5053180;28;20024;-74
2021/07/15 06:10:47;;;;;;;11.57;8.55;;;17.00;94.20;;;;;;5052901;28;20032;-77
2021/07/15 06:13:13;;;;;;;11.38;8.32;;;17.00;94.50;;;;;;5053089;28;20021;-76
2021/07/15 06:15:40;;;;;;;14.10;8.50;;;17.00;94.50;;;;;;5053063;28;20480;-76
2021/07/15 06:18:06;;;;;;;15.23;8.70;;;17.00;94.60;;;;;;5052702;28;20021;-77
2021/07/15 06:20:32;;;;;;;12.77;8.13;;;17.10;94.50;;;;;;5052776;28;20020;-76
2021/07/15 06:22:57;;;;;;;11.80;8.45;;;17.10;94.20;;;;;;5052879;28;20384;-76
2021/07/15 06:25:25;;;;;;;13.40;7.88;;;17.20;94.30;;;;;;5052838;28;20045;-76
2021/07/15 06:27:52;;;;;;;11.80;7.80;;;17.20;94.10;;;;;;5052724;28;20017;-76
2021/07/15 06:30:18;;;;;;;11.00;7.82;;;17.20;94.20;;;;;;5052416;28;20404;-77
2021/07/15 06:32:43;;;;;;;11.32;8.48;;;17.10;94.20;;;;;;5052571;28;20025;-76
2021/07/15 06:35:09;;;;;;;13.23;8.43;;;17.00;94.40;;;;;;5033549;28;20033;-77
2021/07/15 06:37:37;;;;;;;13.25;7.60;;;;;;;;;;5032694;28;20033;-76
2021/07/15 06:40:07;;;;;;;10.45;7.80;;;;;;;;;;5032442;28;20021;-76
2021/07/15 06:42:33;;;;;;;11.35;7.68;;;;;;;;;;5032178;28;20461;-75
2021/07/15 06:44:59;;;;;;;12.02;8.35;;;;;;;;;;5032596;28;20100;-76
2021/07/15 06:47:25;;;;;;;13.20;7.82;;;;;;;;;;5032307;28;20025;-76
2021/07/15 06:49:51;;;;;;;11.18;8.45;;;;;;;;;;5032126;28;20342;-76
2021/07/15 06:52:17;;;;;;;12.13;8.45;;;;;;;;;;5032051;28;20021;-76
2021/07/15 06:54:43;;;;;;;11.60;7.95;;;;;;;;;;5032054;28;20493;-76
2021/07/15 06:57:10;;;;;;;11.20;7.60;;;;;;;;;;5032117;28;20025;-75
2021/07/15 06:59:36;;;;;;;9.90;7.65;;;;;;;;;;5032074;28;20393;-77
2021/07/15 07:02:02;;;;;;;12.23;7.47;;;;;;;;;;5031875;28;20362;-76
2021/07/15 07:04:28;;;;;;;10.27;7.07;;;;;;;;;;5031841;28;20029;-76
2021/07/15 07:06:54;;;;;;;11.70;7.85;;;;;;;;;;5032127;28;20025;-76
2021/07/15 07:09:20;;;;;;;11.23;8.25;;;;;;;;;;5031944;28;20029;-75
2021/07/15 07:11:46;;;;;;;10.68;7.32;;;;;;;;;;5031536;28;20037;-78
2021/07/15 07:14:12;;;;;;;11.77;7.78;;;17.10;94.40;;;;;;5029149;28;20413;-75
2021/07/15 07:16:37;;;;;;;10.82;6.90;;;17.60;93.20;;;;;;5052571;28;20021;-77
2021/07/15 07:19:03;;;;;;;12.85;6.90;;;17.70;93.20;;;;;;5052981;28;20029;-77
2021/07/15 07:21:30;;;;;;;9.45;6.93;;;;;;;;;;5052641;28;20025;-82
2021/07/15 07:23:56;;;;;;;11.98;7.45;;;;;;;;;;5053405;28;20032;-82
2021/07/15 07:26:22;;;;;;;9.30;7.10;;;;;;;;;;5051664;28;20056;-80
2021/07/15 07:28:48;;;;;;;14.52;7.60;;;;;;;;;;5052704;28;20460;-79
2021/07/15 07:31:14;;;;;;;11.82;7.30;;;;;;;;;;5051021;28;20500;-80
2021/07/15 07:33:40;;;;;;;9.88;7.10;;;;;;;;;;5051168;28;20448;-78
2021/07/15 07:36:07;;;;;;;11.93;7.10;;;;;;;;;;5051627;28;20083;-80
2021/07/15 07:38:33;;;;;;;10.13;7.40;;;;;;;;;;5052168;28;20032;-79
2021/07/15 07:40:59;;;;;;;8.98;7.07;;;;;;;;;;5060965;28;20107;-83
2021/07/15 07:43:24;;;;;;;10.98;7.15;;;17.70;93.00;;;;;;5072442;28;20435;-77
2021/07/15 07:45:51;;;;;;;10.23;7.50;;;18.20;92.20;;;;;;5063594;28;20028;-77
2021/07/15 07:48:16;;;;;;;13.18;8.38;;;18.20;92.10;;;;;;5072735;28;20044;-76
2021/07/15 07:50:42;;;;;;;9.88;7.40;;;18.30;92.10;;;;;;5067015;28;20429;-76
2021/07/15 07:53:08;;;;;;;10.68;6.90;;;18.30;92.10;;;;;;5052322;28;20075;-78
2021/07/15 07:55:34;;;;;;;14.50;7.57;;;18.30;92.10;;;;;;5052470;28;20040;-80
2021/07/15 07:57:59;;;;;;;9.73;7.10;;;18.40;91.90;;;;;;5047580;28;20102;-79
2021/07/15 08:00:25;;;;;;;10.95;6.78;;;18.60;91.70;;;;;;5052028;28;20036;-78
2021/07/15 08:02:51;;;;;;;11.73;7.47;;;18.70;91.30;;;;;;5055205;28;20033;-78
2021/07/15 08:05:21;;;;;;;11.35;6.95;;;18.80;91.40;;;;;;5055682;28;20036;-78
2021/07/15 08:07:47;;;;;;;11.13;6.85;;;18.80;90.70;;;;;;5054682;28;20025;-75
2021/07/15 08:10:14;;;;;;;9.93;7.00;;;18.80;90.90;;;;;;5056696;28;20079;-77
2021/07/15 08:12:42;;;;;;;10.65;6.78;;;18.80;91.00;;;;;;5055432;28;20191;-79
2021/07/15 08:15:09;;;;;;;15.65;7.20;;;18.90;91.10;;;;;;5054718;28;20037;-79
2021/07/15 08:17:35;;;;;;;12.13;8.38;;;18.90;91.20;;;;;;5056565;28;20062;-80
2021/07/15 08:20:02;;;;;;;12.07;7.32;;;18.90;91.20;;;;;;5036708;28;20025;-80
2021/07/15 08:22:28;;;;;;;9.13;6.72;;;;;;;;;;5055981;28;20021;-78
2021/07/15 08:24:54;;;;;;;9.95;7.07;;;;;;;;;;5045683;28;20090;-78
2021/07/15 08:27:20;;;;;;;10.82;7.43;;;;;;;;;;5056278;28;20049;-80
2021/07/15 08:29:46;;;;;;;10.27;6.72;;;;;;;;;;5054944;28;20060;-81
2021/07/15 08:32:12;;;;;;;9.32;6.55;;;;;;;;;;5055166;28;20025;-76
2021/07/15 08:34:38;;;;;;;10.32;7.00;;;;;;;;;;5051620;28;20500;-77
2021/07/15 08:37:04;;;;;;;10.90;6.07;;;;;;;;;;5054209;28;20489;-77
2021/07/15 08:39:31;;;;;;;8.95;6.43;;;;;;;;;;5055575;28;20497;-77
2021/07/15 08:41:58;;;;;;;8.55;6.15;;;;;;;;;;5056140;28;20024;-78
2021/07/15 08:44:25;;;;;;;8.43;5.47;;;;;;;;;;5056050;28;20033;-78
2021/07/15 08:46:51;;;;;;;10.35;6.90;;;;;;;;;;5052649;28;20078;-75
2021/07/15 08:49:19;;;;;;;8.95;6.15;;;;;;;;;;5055573;28;20381;-77
2021/07/15 08:51:45;;;;;;;8.13;5.38;;;;;;;;;;5055769;28;20607;-76
2021/07/15 08:54:16;;;;;;;12.18;5.60;;;;;;;;;;5055480;28;20025;-76
2021/07/15 08:56:44;;;;;;;11.98;5.90;;;;;;;;;;5055308;28;20049;-76
2021/07/15 08:59:13;;;;;;;7.70;5.57;;;;;;;;;;5055718;28;20021;-75
2021/07/15 09:01:44;;;;;;;8.60;6.05;;;;;;;;;;5055734;28;20032;-77
2021/07/15 09:04:10;;;;;;;9.00;6.35;;;;;;;;;;5054344;28;20027;-75
2021/07/15 09:06:37;;;;;;;8.35;5.38;;;;;;;;;;5055720;28;20112;-75
2021/07/15 09:09:03;;;;;;;10.75;6.35;;;;;;;;;;5055391;28;20021;-77
2021/07/15 09:11:29;;;;;;;7.30;5.05;;;;;;;;;;5055519;28;20120;-77
2021/07/15 09:13:55;;;;;;;10.52;5.82;;;;;;;;;;5053247;28;20099;-77
2021/07/15 09:16:21;;;;;;;8.45;5.50;;;;;;;;;;5037419;28;20029;-76
2021/07/15 09:18:54;;;;;;;8.07;5.07;;;;;;;;;;5054951;28;20091;-77
2021/07/15 09:21:24;;;;;;;7.32;4.68;;;;;;;;;;5055639;28;20025;-77
2021/07/15 09:23:50;;;;;;;;;;;;;;;;;;5054501;28;20032;-77
2021/07/15 09:26:16;;;;;;;7.00;4.95;;;;;;;;;;5053574;28;19917;-78
2021/07/15 09:28:42;;;;;;;10.55;5.65;;;;;;;;;;5039266;28;20037;-76
2021/07/15 09:31:15;;;;;;;10.30;5.05;;;;;;;;;;5052827;28;20020;-82
2021/07/15 09:33:42;;;;;;;8.65;5.20;;;;;;;;;;5054033;28;20039;-76
2021/07/15 09:36:13;;;;;;;5.63;4.13;;;;;;;;;;5054353;28;20567;-78
2021/07/15 09:38:40;;;;;;;5.45;3.78;;;19.00;91.20;;;;;;5054626;28;20100;-77
2021/07/15 09:41:06;;;;;;;6.25;4.07;;;27.60;56.90;;;;;;5047459;28;20478;-78
2021/07/15 09:43:41;;;;;;;7.00;4.07;;;27.70;54.00;;;;;;5035318;28;20040;-76
2021/07/15 09:46:13;;;;;;;5.95;3.75;;;26.80;56.80;;;;;;5045071;28;20037;-79
2021/07/15 09:48:44;;;;;;;6.20;3.95;;;26.80;57.60;;;;;;5054582;28;20021;-78
2021/07/15 09:51:12;;;;;;;5.45;3.45;;;26.30;58.70;;;;;;5053783;28;20457;-75
2021/07/15 09:53:38;;;;;;;4.68;3.58;;;28.40;55.70;;;;;;5054136;28;20379;-79
2021/07/15 09:56:12;;;;;;;7.05;4.20;;;28.80;51.90;;;;;;5054274;28;20054;-80
2021/07/15 09:58:43;;;;;;;6.20;3.45;;;29.40;51.50;;;;;;5034319;28;20037;-80
2021/07/15 10:01:10;;;;;;;4.20;3.15;;;30.30;49.20;;;;;;5034624;28;20119;-80
2021/07/15 10:03:45;;;;;;;4.82;3.40;;;30.40;47.40;;;;;;5034416;28;20017;-80
2021/07/15 10:06:12;;;;;;;5.65;3.47;;;28.80;50.60;;;;;;5035096;28;20383;-81
2021/07/15 10:08:40;;;;;;;5.88;3.55;;;28.70;51.40;;;;;;5042854;28;20070;-82
2021/07/15 10:11:23;;;;;;;7.32;3.65;;;30.00;48.80;;;;;;5054269;28;20044;-81
2021/07/15 10:14:07;;;;;;;5.63;3.50;;;29.10;49.20;;;;;;5053908;28;20020;-84
2021/07/15 10:16:40;;;;;;;5.53;3.40;;;27.80;51.40;;;;;;5053982;28;20029;-83
2021/07/15 10:19:16;;;;;;;6.13;3.30;;;27.50;54.50;;;;;;5041575;28;20018;-85
2021/07/15 10:21:41;;;;;;;6.13;3.03;;;29.70;48.50;;;;;;5026030;28;20026;-84
2021/07/15 10:24:21;;;;;;;6.15;2.90;;;30.60;47.70;;;;;;5052203;28;20033;-82
2021/07/15 10:26:49;;;;;;;5.75;3.20;;;29.30;49.20;;;;;;5071255;28;20425;-86
2021/07/15 10:29:16;;;;;;;4.45;3.22;;;27.50;52.40;;;;;;5065806;28;20033;-79
2021/07/15 10:31:43;;;;;;;4.68;2.85;;;28.40;53.50;;;;;;5069904;28;20023;-78
2021/07/15 10:34:11;;;;;;;5.30;2.90;;;30.70;46.70;;;;;;5069359;28;20090;-78
2021/07/15 10:36:38;;;;;;;3.78;2.42;;;30.90;46.80;;;;;;5066810;28;20025;-79
2021/07/15 10:39:07;;;;;;;2.70;2.40;;;32.90;42.10;;;;;;5063574;28;20043;-77
2021/07/15 10:41:34;;;;;;;4.97;3.28;;;31.40;44.00;;;;;;5072495;28;20584;-75
2021/07/15 10:44:00;;;;;;;5.03;3.53;;;29.30;47.60;;;;;;5073039;28;20039;-75
2021/07/15 10:46:27;;;;;;;4.32;3.08;;;27.90;51.80;;;;;;5073042;28;20024;-75
2021/07/15 10:48:53;;;;;;;7.28;3.55;;;26.80;54.10;;;;;;5072991;28;20074;-77
2021/07/15 10:51:19;;;;;;;3.80;2.55;;;29.30;49.30;;;;;;5073370;28;20024;-77
2021/07/15 10:53:45;;;;;;;6.20;2.58;;;30.50;46.00;;;;;;5073235;28;20082;-77
2021/07/15 10:56:16;;;;;;;3.30;2.40;;;33.80;41.90;;;;;;5073332;28;20048;-76
2021/07/15 10:58:44;;;;;;;3.78;2.97;;;35.10;37.60;;;;;;5073344;28;20032;-75
2021/07/15 11:01:11;;;;;;;5.22;2.78;;;32.20;41.80;;;;;;5073323;28;20024;-76
2021/07/15 11:03:37;;;;;;;5.53;2.78;;;29.60;46.60;;;;;;5073159;28;20444;-76
2021/07/15 11:06:03;;;;;;;4.22;3.00;;;27.80;50.60;;;;;;5073183;28;20044;-74
2021/07/15 11:08:44;;;;;;;3.83;2.55;;;26.90;52.30;;;;;;5073195;28;20107;-75
2021/07/15 11:11:11;;;;;;;5.80;3.10;;;26.80;53.00;;;;;;5073228;28;20024;-75
2021/07/15 11:13:37;;;;;;;3.85;2.88;;;28.20;52.80;;;;;;5073041;28;20048;-75
2021/07/15 11:16:04;;;;;;;4.68;3.28;;;29.20;49.10;;;;;;5073011;28;20052;-76
2021/07/15 11:18:46;;;;;;;4.32;2.60;;;29.20;48.50;;;;;;5073058;28;20037;-75
2021/07/15 11:21:36;;;;;;;4.18;3.10;;;29.70;46.90;;;;;;5071542;28;20016;-78
2021/07/15 11:24:04;;;;;;;4.40;2.78;;;28.00;50.30;;;;;;5073183;28;20036;-78
2021/07/15 11:26:37;;;;;;;4.53;2.70;;;26.90;52.10;;;;;;5055455;28;20060;-77
2021/07/15 11:29:07;;;;;;;4.45;3.20;;;26.70;54.30;;;;;;5052803;28;20127;-77
2021/07/15 11:31:44;;;;;;;4.32;2.90;;;26.40;54.90;;;;;;5052900;28;20056;-75
2021/07/15 11:34:11;;;;;;;4.95;3.38;;;25.70;56.30;;;;;;5052745;28;20500;-78
2021/07/15 11:36:37;;;;;;;5.60;3.20;;;25.10;57.10;;;;;;5054068;28;20052;-76
2021/07/15 11:39:07;;;;;;;7.65;3.17;;;24.80;58.50;;;;;;5056825;28;20493;-77
2021/07/15 11:41:43;;;;;;;3.95;3.17;;;25.00;59.70;;;;;;5056601;28;20094;-75
2021/07/15 11:44:09;;;;;;;5.93;3.10;;;25.10;58.50;;;;;;5056789;28;20017;-75
2021/07/15 11:46:36;;;;;;;5.57;2.88;;;25.00;58.50;;;;;;5056648;28;20036;-77
2021/07/15 11:49:07;;;;;;;5.13;3.60;;;25.00;59.00;;;;;;5056739;28;20439;-76
2021/07/15 11:52:02;;;;;;;3.80;3.25;;;25.10;59.70;;;;;;5056657;28;20024;-75
2021/07/15 11:54:36;;;;;;;4.03;3.00;;;24.90;61.10;;;;;;5056517;28;20021;-76
2021/07/15 11:57:14;;;;;;;6.72;2.95;;;24.50;59.30;;;;;;5056749;28;20112;-76
2021/07/15 11:59:45;;;;;;;4.95;3.40;;;24.40;61.50;;;;;;5056514;28;20017;-76
2021/07/15 12:02:18;;;;;;;4.43;3.00;;;24.50;61.10;;;;;;5056397;28;20021;-76
2021/07/15 12:05:07;;;;;;;6.10;3.25;;;24.80;59.90;;;;;;5056297;28;20048;-76
2021/07/15 12:07:34;;;;;;;5.50;2.97;;;24.90;61.10;;;;;;5056460;28;20071;-76
2021/07/15 12:10:03;;;;;;;5.82;3.15;;;24.70;59.80;;;;;;5056245;28;20739;-76
2021/07/15 12:12:30;;;;;;;5.17;2.80;;;24.60;58.40;;;;;;5056220;28;20031;-76
2021/07/15 12:14:55;;;;;;;4.97;3.15;;;24.80;59.60;;;;;;5056176;28;20029;-75
2021/07/15 12:17:21;;;;;;;4.90;3.08;;;25.00;59.60;;;;;;5055908;28;20075;-75
2021/07/15 12:19:57;;;;;;;4.05;2.95;;;25.00;58.90;;;;;;5056251;28;20013;-77
2021/07/15 12:22:23;;;;;;;4.15;3.00;;;24.80;59.90;;;;;;5056083;28;20025;-75
2021/07/15 12:25:05;;;;;;;5.15;2.90;;;24.70;60.70;;;;;;5055922;28;20041;-75
2021/07/15 12:27:42;;;;;;;5.25;2.95;;;24.40;59.80;;;;;;5055973;28;20075;-76
2021/07/15 12:30:08;;;;;;;4.10;3.03;;;24.30;60.20;;;;;;5056018;28;20029;-75
2021/07/15 12:32:35;;;;;;;5.07;2.80;;;24.40;60.90;;;;;;5055752;28;20510;-77
2021/07/15 12:35:10;;;;;;;3.70;2.78;;;24.60;59.50;;;;;;5055698;28;20156;-75
2021/07/15 12:37:35;;;;;;;4.07;2.85;;;24.50;59.70;;;;;;5055774;28;20025;-77
2021/07/15 12:40:01;;;;;;;5.15;3.05;;;24.30;59.30;;;;;;5055659;28;20397;-76
2021/07/15 12:42:26;;;;;;;5.00;3.00;;;24.40;61.40;;;;;;5055697;28;20036;-75
2021/07/15 12:44:52;;;;;;;4.85;2.85;;;24.40;61.60;;;;;;5055617;28;20029;-78
2021/07/15 12:47:18;;;;;;;5.07;3.10;;;24.40;60.00;;;;;;5055513;28;20028;-78
2021/07/15 12:49:43;;;;;;;7.72;3.13;;;24.40;59.60;;;;;;5055505;28;20393;-74
2021/07/15 12:52:09;;;;;;;5.25;3.10;;;24.50;62.30;;;;;;5055164;28;20111;-78
2021/07/15 12:54:48;;;;;;;7.63;3.00;;;24.50;59.10;;;;;;5055322;28;20025;-77
2021/07/15 12:57:14;;;;;;;5.93;3.40;;;24.30;58.50;;;;;;5055301;28;20508;-77
2021/07/15 12:59:43;;;;;;;4.28;3.03;;;24.40;60.20;;;;;;5055435;28;20260;-78
2021/07/15 13:02:11;;;;;;;3.92;2.92;;;24.60;59.80;;;;;;5055416;28;20029;-79
2021/07/15 13:04:37;;;;;;;4.97;2.80;;;24.60;60.30;;;;;;5055912;28;20033;-76
2021/07/15 13:07:08;;;;;;;3.95;2.97;;;24.40;58.10;;;;;;5055966;28;20050;-76
2021/07/15 13:15:00;;;;;;;3.78;2.50;;;24.60;58.20;;;;;;5055258;28;20083;-78
2021/07/15 13:17:47;;;;;;;5.68;2.55;;;24.50;58.50;;;;;;5055618;28;20044;-76
2021/07/15 13:20:13;;;;;;;4.35;3.13;;;24.30;58.70;;;;;;5055376;28;20025;-77
2021/07/15 13:22:44;;;;;;;3.58;2.80;;;24.40;60.00;;;;;;5055405;28;20070;-77
2021/07/15 13:25:18;;;;;;;4.35;3.00;;;24.40;59.00;;;;;;5054752;28;20053;-77